Date,TemperatureHighF,TemperatureAvgF,TemperatureLowF,DewpointHighF,DewpointAvgF,DewpointLowF,HumidityHigh,HumidityAvg,HumidityLow,PressureMaxIn,PressureMinIn,WindSpeedMaxMPH,WindSpeedAvgMPH,GustSpeedMaxMPH,PrecipitationSumIn
2013-1-1,37,32,28,17,12,6,61,43,32,0.00,40.00,13,8,24,0.02
2013-1-2,41,34,26,10,7,5,41,33,25,0.00,40.00,16,12,30,0.00
2013-1-3,43,37,31,10,6,2,35,27,19,0.00,40.00,15,12,27,0.00
2013-1-4,44,38,31,4,1,-8,28,21,12,0.00,40.00,14,8,22,0.00
2013-1-5,47,40,36,21,5,-3,50,24,17,0.00,40.00,21,6,27,0.00
2013-1-6,37,32,30,33,30,20,99,92,51,0.00,40.00,22,12,29,0.09
2013-1-7,45,36,28,31,24,12,99,67,29,0.00,40.00,9,6,17,0.03
2013-1-8,53,47,42,29,22,12,43,38,27,0.00,40.00,11,9,17,0.01
2013-1-9,59,48,39,35,28,25,79,48,33,0.00,40.00,28,15,37,0.00
2013-1-10,36,29,24,35,24,19,98,83,63,0.00,40.00,25,9,38,0.00
2013-1-11,31,26,22,22,19,11,87,76,63,0.00,40.00,6,4,17,0.01
2013-1-12,36,27,22,18,12,5,76,53,35,0.00,40.00,8,5,11,0.01
2013-1-13,39,27,19,15,8,0,64,47,27,0.00,40.00,8,6,17,0.00
2013-1-14,28,21,13,0,-5,-8,48,33,21,0.00,40.00,16,9,29,0.00
2013-1-15,38,30,22,11,2,-8,38,29,25,0.00,40.00,14,12,24,0.00
2013-1-16,45,37,31,18,14,11,46,38,31,0.00,40.00,16,13,29,0.00
2013-1-17,51,41,34,13,9,4,40,28,16,0.00,40.00,17,13,29,0.00
2013-1-18,50,43,38,6,5,1,23,20,16,0.00,40.00,17,14,29,0.00
2013-1-19,51,44,38,7,4,2,23,19,14,0.00,40.00,17,13,28,0.00
2013-1-20,52,45,40,4,2,-2,19,16,13,0.00,40.00,13,10,24,0.00
2013-1-21,55,47,40,5,0,-6,18,14,10,0.00,40.00,15,10,28,0.00
2013-1-22,55,48,43,5,1,-5,16,14,11,0.00,40.00,13,8,20,0.00
2013-1-23,58,51,43,33,13,2,68,24,14,0.00,40.00,16,7,21,0.00
2013-1-24,47,43,40,46,42,33,100,97,71,0.00,40.00,18,7,24,0.56
2013-1-25,44,42,40,44,42,40,100,100,99,0.00,40.00,13,10,22,0.22
2013-1-26,56,47,43,52,45,42,100,94,73,0.00,40.00,19,8,27,0.20
2013-1-27,44,36,29,44,33,24,99,90,74,0.00,40.00,19,10,29,0.08
2013-1-28,37,31,27,25,23,21,82,72,56,0.00,40.00,10,5,19,0.01
2013-1-29,48,39,29,27,25,23,81,59,41,0.00,40.00,12,5,16,0.00
2013-1-30,57,45,37,30,27,25,67,51,34,0.00,40.00,13,7,23,0.00
2013-1-31,55,49,42,31,28,26,53,44,37,0.00,40.00,13,8,21,0.00
2013-2-1,58,50,45,31,28,26,49,42,35,0.00,40.00,9,5,14,0.00
2013-2-2,52,49,44,39,29,26,83,49,38,0.00,40.00,11,8,21,0.05
2013-2-3,59,49,43,38,31,19,75,53,28,0.00,40.00,8,5,15,0.05
2013-2-4,61,52,46,31,24,20,44,33,24,0.00,40.00,9,5,14,0.00
2013-2-5,60,51,40,38,27,13,92,43,20,0.00,40.00,16,7,23,0.00
2013-2-6,57,46,34,36,13,-20,89,39,5,0.00,40.00,9,5,22,0.00
2013-2-7,51,43,35,39,23,-15,98,57,6,0.00,40.00,23,14,34,0.02
2013-2-8,34,29,26,34,28,24,98,97,95,0.00,40.00,18,10,31,0.05
2013-2-9,41,31,25,30,26,23,95,83,57,0.00,40.00,16,8,26,0.16
2013-2-10,44,33,28,34,29,23,97,87,55,0.00,40.00,15,9,21,0.01
2013-2-11,43,35,28,23,13,0,74,44,22,0.00,40.00,8,4,16,0.01
2013-2-12,49,39,33,20,6,-3,47,26,21,0.00,40.00,8,4,14,0.00
2013-2-13,53,44,38,19,16,10,45,32,22,0.00,40.00,8,6,16,0.00
2013-2-14,56,48,41,22,17,14,37,30,21,0.00,40.00,14,8,22,0.00
2013-2-15,58,48,40,21,16,9,44,29,18,0.00,40.00,13,9,27,0.00
2013-2-16,57,50,44,16,12,6,27,22,16,0.00,40.00,12,6,17,0.00
2013-2-17,59,50,43,28,17,6,55,28,17,0.00,40.00,12,5,19,0.00
2013-2-18,53,43,35,39,31,24,98,65,37,0.00,40.00,28,16,36,0.00
2013-2-19,34,31,31,34,26,-100,99,93,98,0.00,40.00,29,24,38,0.12
2013-2-20,33,30,27,31,27,21,96,88,75,0.00,40.00,10,6,18,0.11
2013-2-21,44,34,28,27,23,16,84,65,35,0.00,40.00,7,5,18,0.02
2013-2-22,54,42,35,25,17,6,51,37,28,0.00,40.00,9,5,22,0.00
2013-2-23,56,42,33,31,25,16,79,52,21,0.00,40.00,10,7,22,0.00
2013-2-24,44,36,26,27,4,-6,77,30,15,0.00,40.00,16,9,33,0.00
2013-2-25,57,44,36,17,7,-5,39,22,17,0.00,40.00,10,6,18,0.00
2013-2-26,51,42,35,22,13,3,54,32,17,0.00,40.00,10,7,25,0.00
2013-2-27,52,42,35,10,4,1,24,20,16,0.00,40.00,12,8,19,0.00
2013-2-28,58,48,39,11,6,2,28,18,12,0.00,40.00,9,7,14,0.00
2013-3-1,64,53,45,17,14,6,32,21,16,0.00,40.00,15,8,25,0.00
2013-3-2,69,57,50,26,18,15,26,22,17,0.00,40.00,17,10,25,0.00
2013-3-3,57,51,42,37,27,15,78,42,21,0.00,40.00,23,12,36,0.00
2013-3-4,61,48,40,43,37,32,97,68,36,0.00,40.00,12,7,19,0.00
2013-3-5,54,46,36,43,39,33,98,80,45,0.00,40.00,31,21,42,0.00
2013-3-6,38,36,33,38,36,33,99,99,98,0.00,40.00,31,18,42,0.02
2013-3-7,39,36,32,39,34,30,99,95,75,0.00,40.00,26,20,36,0.05
2013-3-8,36,32,29,35,32,29,99,98,97,0.00,40.00,16,6,22,0.25
2013-3-9,47,38,30,34,30,21,98,75,47,0.00,40.00,8,5,18,0.05
2013-3-10,55,48,39,23,14,8,46,28,18,0.00,40.00,10,7,20,0.00
2013-3-11,66,54,47,29,17,9,36,24,15,0.00,40.00,11,6,14,0.00
2013-3-12,69,58,51,25,16,9,28,19,15,0.00,40.00,12,5,18,0.00
2013-3-13,73,63,55,26,19,13,22,18,15,0.00,40.00,11,6,18,0.00
2013-3-14,79,67,60,32,24,18,24,20,15,0.00,40.00,13,7,20,0.00
2013-3-15,75,65,54,39,29,17,47,27,12,0.00,40.00,19,12,28,0.00
2013-3-16,69,58,50,35,25,14,54,30,15,0.00,40.00,9,6,22,0.00
2013-3-17,70,54,45,41,24,9,74,37,9,0.00,40.00,16,7,29,0.00
2013-3-18,67,55,48,41,21,11,67,28,17,0.00,40.00,11,5,29,0.00
2013-3-19,68,55,45,36,28,17,52,36,25,0.00,40.00,8,5,16,0.00
2013-3-20,65,54,48,44,35,29,63,49,32,0.00,40.00,11,6,22,0.00
2013-3-21,69,52,42,41,31,5,88,52,9,0.00,40.00,10,6,21,0.00
2013-3-22,64,48,40,34,24,11,77,41,22,0.00,40.00,12,7,24,0.00
2013-3-23,64,51,42,26,5,-18,40,17,5,0.00,40.00,12,7,21,0.00
2013-3-24,67,55,47,23,9,-18,27,17,5,0.00,40.00,9,6,14,0.00
2013-3-25,66,57,51,38,24,10,59,30,16,0.00,40.00,17,11,25,0.00
2013-3-26,65,54,48,42,33,25,74,46,27,0.00,40.00,17,12,25,0.00
2013-3-27,61,52,46,44,37,33,68,58,49,0.00,40.00,16,9,26,0.00
2013-3-28,65,57,51,42,37,28,71,48,37,0.00,40.00,17,9,26,0.00
2013-3-29,68,57,50,41,35,31,72,45,26,0.00,40.00,19,12,25,0.00
2013-3-30,67,55,46,39,33,24,59,43,27,0.00,40.00,25,18,34,0.00
2013-3-31,49,44,42,47,42,28,99,92,52,0.00,40.00,22,15,32,0.23
2013-4-1,51,43,38,48,42,38,99,95,80,0.00,40.00,15,9,22,0.08
2013-4-2,68,52,42,40,35,25,90,57,26,0.00,40.00,8,5,18,0.00
2013-4-3,73,59,51,41,30,23,56,34,22,0.00,40.00,16,8,22,0.00
2013-4-4,66,56,49,46,39,29,89,54,39,0.00,40.00,19,12,26,0.00
2013-4-5,63,51,45,45,40,30,93,68,43,0.00,40.00,12,7,24,0.00
2013-4-6,69,52,43,41,36,30,86,56,30,0.00,40.00,11,7,22,0.00
2013-4-7,67,53,43,41,35,21,91,55,21,0.00,40.00,12,6,25,0.00
2013-4-8,48,40,35,39,31,20,87,70,48,0.00,40.00,10,8,31,0.00
2013-4-9,59,45,35,26,22,14,62,42,21,0.00,40.00,10,5,17,0.00
2013-4-10,71,57,45,25,15,9,30,20,12,0.00,40.00,10,7,24,0.00
2013-4-11,69,58,50,40,33,26,68,41,24,0.00,40.00,16,9,29,0.00
2013-4-12,76,61,52,43,36,29,61,42,18,0.00,40.00,14,6,21,0.00
2013-4-13,65,55,46,47,42,38,97,64,45,0.00,40.00,20,13,27,0.00
2013-4-14,62,47,41,49,44,41,99,90,49,0.00,40.00,16,11,26,0.01
2013-4-15,43,41,38,42,41,38,99,98,93,0.00,40.00,29,19,41,0.03
2013-4-16,47,38,28,38,27,18,99,67,39,0.00,40.00,25,6,36,0.03
2013-4-17,55,43,32,22,18,14,58,38,21,0.00,40.00,6,4,17,0.00
2013-4-18,60,48,37,14,8,0,33,21,11,0.00,40.00,12,7,23,0.00
2013-4-19,73,57,47,23,14,7,30,19,10,0.00,40.00,7,5,24,0.00
2013-4-20,76,63,52,31,25,14,38,26,10,0.00,40.00,11,6,21,0.00
2013-4-21,77,66,59,34,21,-13,29,19,4,0.00,40.00,19,12,31,0.00
2013-4-22,72,62,52,44,31,0,64,35,8,0.00,40.00,17,10,27,0.00
2013-4-23,72,62,51,41,26,15,69,31,11,0.00,40.00,10,7,24,0.00
2013-4-24,70,56,43,48,37,27,99,55,23,0.00,40.00,21,9,27,0.00
2013-4-25,61,49,41,47,41,32,100,77,45,0.00,40.00,19,15,31,0.01
2013-4-26,77,60,43,43,36,18,90,47,11,0.00,40.00,13,7,22,0.01
2013-4-27,83,69,60,31,26,14,30,21,8,0.00,40.00,8,5,17,0.00
2013-4-28,85,71,62,35,28,8,33,21,11,0.00,40.00,14,6,25,0.00
2013-4-29,81,70,58,47,26,8,63,23,10,0.00,40.00,17,8,25,0.00
2013-4-30,69,58,47,48,41,24,98,57,29,0.00,40.00,17,13,25,0.00
2013-5-1,75,62,47,44,12,-20,89,23,3,0.00,40.00,10,7,25,0.00
2013-5-2,70,61,50,2,-8,-17,10,6,4,0.00,40.00,10,8,25,0.00
2013-5-3,83,65,56,17,-2,-13,16,7,5,0.00,40.00,14,9,22,0.00
2013-5-4,70,61,45,45,28,13,98,35,12,0.00,40.00,24,14,32,0.00
2013-5-5,44,42,41,44,42,41,100,99,99,0.00,40.00,33,26,47,0.05
2013-5-6,46,43,41,46,43,40,100,99,90,0.00,40.00,30,23,44,0.56
2013-5-7,50,44,40,47,41,39,100,91,72,0.00,40.00,22,14,28,0.02
2013-5-8,58,47,40,51,43,40,99,88,63,0.00,40.00,18,13,27,0.01
2013-5-9,67,55,44,47,45,42,92,69,46,0.00,40.00,11,5,19,0.00
2013-5-10,80,65,52,45,41,34,74,45,20,0.00,40.00,6,4,16,0.00
2013-5-11,84,72,62,44,36,29,40,29,14,0.00,40.00,9,6,17,0.00
2013-5-12,86,75,67,42,35,27,37,25,12,0.00,40.00,15,6,25,0.00
2013-5-13,87,77,69,39,31,24,33,20,12,0.00,40.00,18,10,27,0.00
2013-5-14,75,66,59,38,30,23,45,27,17,0.00,40.00,25,14,37,0.00
2013-5-15,71,62,55,49,43,36,78,50,38,0.00,40.00,17,9,26,0.00
2013-5-16,66,53,50,49,22,-100,93,59,32,0.00,40.00,14,8,21,0.00
2013-5-17,67,53,46,48,36,-100,85,66,36,0.00,40.00,15,8,29,0.00
2013-5-18,74,60,48,38,28,15,58,32,15,0.00,40.00,13,7,25,0.00
2013-5-19,78,63,51,36,28,16,54,29,12,0.00,40.00,12,6,24,0.00
2013-5-20,80,67,56,40,28,17,40,25,10,0.00,40.00,12,7,21,0.00
2013-5-21,78,68,58,48,35,15,67,32,15,0.00,40.00,20,10,29,0.00
2013-5-22,66,56,47,46,35,19,87,47,28,0.00,40.00,19,10,34,0.00
2013-5-23,60,51,42,45,31,10,87,49,26,0.00,40.00,20,12,32,0.00
2013-5-24,65,53,44,45,34,20,85,51,32,0.00,40.00,23,11,34,0.00
2013-5-25,62,52,44,46,43,37,89,71,51,0.00,40.00,21,15,32,0.00
2013-5-26,67,56,46,46,40,34,90,58,33,0.00,40.00,18,10,29,0.00
2013-5-27,76,60,50,43,35,25,68,43,17,0.00,40.00,13,6,29,0.00
2013-5-28,63,55,47,49,43,37,92,65,48,0.00,40.00,13,7,29,0.00
2013-5-29,74,61,52,45,40,31,75,47,27,0.00,40.00,12,7,25,0.00
2013-5-30,86,70,56,39,20,0,48,19,4,0.00,40.00,10,6,20,0.00
2013-5-31,89,74,60,42,25,14,36,18,8,0.00,40.00,13,5,25,0.00
2013-6-1,92,78,71,33,27,13,22,16,6,0.00,40.00,15,7,20,0.00
2013-6-2,78,71,61,50,39,19,56,34,12,0.00,40.00,21,13,31,0.00
2013-6-3,72,63,56,48,37,24,66,40,26,0.00,40.00,19,16,29,0.00
2013-6-4,74,62,56,50,43,31,78,49,31,0.00,40.00,18,15,29,0.00
2013-6-5,78,68,58,50,38,14,66,36,17,0.00,40.00,15,11,21,0.00
2013-6-6,82,69,61,50,47,43,63,47,27,0.00,40.00,17,9,22,0.00
2013-6-7,94,79,67,50,43,36,53,29,14,0.00,40.00,10,6,16,0.00
2013-6-8,92,79,67,52,42,35,52,28,19,0.00,40.00,18,10,25,0.00
2013-6-9,79,68,60,46,36,15,51,33,9,0.00,40.00,25,15,36,0.00
2013-6-10,69,59,46,48,43,29,100,59,32,0.00,40.00,20,15,30,0.00
2013-6-11,85,71,58,43,37,23,55,30,17,0.00,40.00,18,11,30,0.00
2013-6-12,76,68,59,52,43,29,78,42,22,0.00,40.00,19,13,27,0.00
2013-6-13,79,68,59,47,38,14,63,35,17,0.00,40.00,15,8,27,0.00
2013-6-14,82,68,58,49,30,12,71,27,11,0.00,40.00,18,9,26,0.00
2013-6-15,72,62,53,47,40,14,72,45,16,0.00,40.00,19,15,30,0.00
2013-6-16,82,69,58,42,33,16,45,28,14,0.00,40.00,10,6,19,0.00
2013-6-17,85,69,60,36,30,20,41,25,14,0.00,40.00,10,6,26,0.00
2013-6-18,78,67,58,46,37,29,61,35,22,0.00,40.00,17,10,27,0.00
2013-6-19,81,64,49,42,22,6,61,28,6,0.00,40.00,15,6,23,0.00
2013-6-20,80,63,54,31,25,18,40,26,10,0.00,40.00,11,6,21,0.00
2013-6-22,79,73,64,48,41,33,45,32,23,0.00,40.00,14,8,21,0.00
2013-6-23,67,61,54,54,46,37,95,61,40,0.00,40.00,17,10,27,0.00
2013-6-24,56,52,49,53,50,46,100,95,75,0.00,40.00,17,11,26,0.00
2013-6-25,80,66,51,55,52,46,100,64,41,0.00,40.00,12,8,19,0.00
2013-6-26,86,73,63,54,52,45,66,50,32,0.00,40.00,15,9,25,0.00
2013-6-27,90,78,69,53,50,45,51,39,24,0.00,40.00,18,12,30,0.00
2013-6-28,94,81,70,55,50,45,51,36,21,0.00,40.00,16,8,26,0.00
2013-6-29,99,87,76,48,42,35,33,22,12,0.00,40.00,15,8,24,0.00
2013-6-30,102,88,79,50,40,32,31,20,9,0.00,40.00,16,7,25,0.00
2013-7-1,89,78,71,52,47,41,46,34,23,0.00,40.00,21,14,32,0.00
2013-7-2,90,78,69,52,45,34,49,33,15,0.00,40.00,20,13,27,0.00
2013-7-3,91,79,71,52,47,44,48,33,23,0.00,40.00,16,8,23,0.00
2013-7-4,88,78,67,52,48,42,53,37,26,0.00,40.00,20,11,31,0.00
2013-7-5,82,72,66,52,46,41,59,40,26,0.00,40.00,19,13,28,0.00
2013-7-6,84,72,67,53,48,44,55,44,31,0.00,40.00,20,15,30,0.00
2013-7-7,88,76,64,53,43,36,67,34,17,0.00,40.00,16,10,28,0.00
2013-7-8,93,81,73,38,32,27,28,18,10,0.00,40.00,18,7,31,0.00
2013-7-9,94,82,74,41,32,28,23,17,10,0.00,40.00,17,8,29,0.00
2013-7-10,85,74,66,54,36,-100,59,29,17,0.00,40.00,13,7,20,0.00
2013-7-11,75,67,59,56,49,40,75,55,29,0.00,40.00,17,11,21,0.03
2013-7-12,82,69,62,54,51,41,76,56,31,0.00,40.00,18,13,30,0.01
2013-7-13,88,77,65,46,41,35,50,29,18,0.00,40.00,14,7,25,0.00
2013-7-14,94,81,72,35,33,30,24,18,11,0.00,40.00,7,4,15,0.00
2013-7-15,84,76,69,41,34,30,27,21,17,0.00,40.00,21,10,35,0.00
2013-7-16,81,74,64,32,25,11,26,17,8,0.00,40.00,18,15,29,0.00
2013-7-17,87,72,61,37,28,17,41,21,11,0.00,40.00,16,12,24,0.00
2013-7-18,92,79,70,40,27,15,26,16,10,0.00,40.00,13,6,21,0.00
2013-7-19,90,79,68,47,35,23,47,22,14,0.00,40.00,16,10,25,0.00
2013-7-20,85,73,68,58,44,-100,68,38,21,0.00,40.00,19,12,30,0.00
2013-7-21,76,70,67,59,54,41,65,57,38,0.00,40.00,16,11,20,0.00
2013-7-22,81,69,63,60,56,48,83,66,48,0.00,40.00,18,10,30,0.15
2013-7-23,82,71,64,60,54,48,81,56,40,0.00,40.00,17,9,28,0.00
2013-7-24,86,75,63,54,51,47,70,44,29,0.00,40.00,14,7,24,0.00
2013-7-25,88,78,72,50,47,43,39,33,26,0.00,40.00,16,8,25,0.00
2013-7-26,82,75,71,56,50,45,49,41,34,0.00,40.00,10,6,15,0.03
2013-7-27,87,76,67,57,53,48,62,45,34,0.00,40.00,18,9,27,0.01
2013-7-28,79,69,61,53,47,34,68,48,25,0.00,40.00,21,14,31,0.00
2013-7-29,79,68,61,41,30,20,39,24,13,0.00,40.00,20,15,26,0.00
2013-7-30,83,71,64,46,37,22,50,30,18,0.00,40.00,19,14,26,0.00
2013-7-31,80,71,63,47,42,22,51,36,17,0.00,40.00,16,11,26,0.00
2013-8-1,82,71,64,46,40,27,45,32,21,0.00,40.00,12,7,18,0.00
2013-8-2,77,68,60,48,37,27,65,34,23,0.00,40.00,17,10,26,0.00
2013-8-3,80,68,60,47,38,28,59,34,19,0.00,40.00,17,14,26,0.00
2013-8-4,81,70,61,44,35,23,40,29,16,0.00,40.00,18,12,28,0.00
2013-8-5,82,70,63,38,28,-6,39,23,6,0.00,40.00,19,14,28,0.00
2013-8-6,79,67,60,43,26,-8,48,25,5,0.00,40.00,22,16,33,0.00
2013-8-7,77,64,56,46,36,19,59,37,14,0.00,40.00,17,13,27,0.00
2013-8-8,78,64,58,47,41,36,63,45,22,0.00,40.00,19,13,28,0.00
2013-8-9,77,65,55,47,38,23,71,42,14,0.00,40.00,19,12,29,0.00
2013-8-10,76,67,59,46,42,23,55,40,22,0.00,40.00,14,8,23,0.00
2013-8-11,82,70,61,46,41,36,52,37,25,0.00,40.00,14,8,23,0.00
2013-8-12,85,73,65,48,40,32,48,31,20,0.00,40.00,14,7,23,0.00
2013-8-13,90,77,69,44,34,-100,32,22,14,0.00,40.00,14,8,22,0.00
2013-8-14,92,79,71,35,24,-100,21,14,8,0.00,40.00,14,7,25,0.00
2013-8-15,91,71,73,47,11,-100,39,14,10,0.00,40.00,19,9,29,0.00
2013-8-16,89,76,69,48,36,-100,40,26,19,0.00,40.00,17,11,27,0.00
2013-8-17,90,79,69,42,38,29,35,24,13,0.00,40.00,17,12,27,0.00
2013-8-18,93,80,72,54,40,25,53,25,17,0.00,40.00,20,7,31,0.00
2013-8-19,89,70,63,58,41,-100,75,46,23,0.00,40.00,16,10,25,0.01
2013-8-20,86,76,69,49,38,-100,47,29,16,0.00,40.00,22,14,30,0.03
2013-8-21,89,77,68,38,32,25,29,20,12,0.00,40.00,20,15,30,0.00
2013-8-22,88,79,68,39,31,18,31,18,14,0.00,40.00,26,18,37,0.00
2013-8-23,88,76,67,42,30,22,34,19,11,0.00,40.00,19,14,30,0.00
2013-8-24,87,75,65,37,30,22,35,20,10,0.00,40.00,16,13,26,0.00
2013-8-25,85,72,65,38,30,19,34,21,12,0.00,40.00,17,11,28,0.00
2013-8-26,85,72,64,58,49,19,63,47,15,0.00,40.00,13,6,21,0.00
2013-8-27,78,67,62,61,59,53,92,76,53,0.00,40.00,8,5,13,0.00
2013-8-28,87,80,71,56,52,47,48,39,32,0.00,40.00,20,15,32,0.00
2013-8-29,93,79,70,49,45,41,42,30,21,0.00,40.00,15,11,22,0.00
2013-8-30,90,77,68,63,53,42,80,46,32,0.00,40.00,19,13,31,0.00
2013-8-31,82,71,65,66,62,59,94,76,51,0.00,40.00,21,16,36,0.00
2013-9-1,82,70,62,63,61,59,100,77,50,0.00,40.00,21,15,31,0.00
2013-9-2,87,72,64,59,55,48,79,58,33,0.00,40.00,17,13,27,0.00
2013-9-3,87,76,69,54,51,46,58,42,27,0.00,40.00,19,12,30,0.00
2013-9-4,91,78,70,49,48,45,46,36,22,0.00,40.00,17,11,26,0.00
2013-9-5,91,79,72,48,45,42,42,31,21,0.00,40.00,16,13,28,0.00
2013-9-6,92,79,73,45,42,39,35,28,17,0.00,40.00,18,11,30,0.00
2013-9-7,92,78,71,42,37,33,30,24,16,0.00,40.00,15,10,24,0.00
2013-9-8,89,76,69,43,37,34,36,25,16,0.00,40.00,14,7,22,0.00
2013-9-9,87,74,64,49,43,36,52,35,23,0.00,40.00,15,7,25,0.00
2013-9-10,79,68,62,48,37,29,59,34,19,0.00,40.00,19,16,30,0.00
2013-9-11,78,67,62,50,39,30,58,36,23,0.00,40.00,18,15,27,0.00
2013-9-12,84,71,65,41,36,26,40,28,15,0.00,40.00,16,12,25,0.00
2013-9-13,91,75,67,44,40,35,37,28,19,0.00,40.00,13,5,21,0.00
2013-9-14,92,79,71,45,40,34,35,25,13,0.00,40.00,15,7,26,0.00
2013-9-15,88,78,72,44,38,34,36,25,15,0.00,40.00,18,12,30,0.00
2013-9-16,87,76,68,39,33,27,31,21,14,0.00,40.00,19,15,30,0.00
2013-9-17,80,67,59,43,34,21,55,31,11,0.00,40.00,19,14,31,0.00
2013-9-18,67,62,58,40,34,30,50,37,26,0.00,40.00,7,4,13,0.00
2013-9-19,84,72,63,46,30,22,40,22,11,0.00,40.00,10,7,17,0.00
2013-9-20,75,67,57,53,42,23,88,45,16,0.00,40.00,24,13,32,0.00
2013-9-21,66,54,49,53,49,43,100,85,60,0.00,40.00,19,13,34,0.00
2013-9-22,66,52,43,45,37,31,94,62,30,0.00,40.00,12,6,21,0.00
2013-9-23,79,64,51,37,33,30,58,34,17,0.00,40.00,14,8,20,0.00
2013-9-24,80,68,58,36,32,29,43,27,16,0.00,40.00,20,13,29,0.00
2013-9-25,64,55,47,50,42,36,82,60,46,0.00,40.00,22,16,34,0.00
2013-9-26,60,47,40,36,32,24,83,59,30,0.00,40.00,9,6,18,0.00
2013-9-27,66,54,45,31,23,15,53,32,16,0.00,40.00,9,6,19,0.00
2013-9-28,74,62,52,23,20,16,26,20,12,0.00,40.00,10,5,16,0.00
2013-9-29,79,67,61,28,20,13,26,18,10,0.00,40.00,14,7,22,0.00
2013-9-30,78,67,58,35,31,27,39,27,17,0.00,40.00,8,5,19,0.00
2013-10-1,70,61,57,48,47,43,68,60,42,0.00,40.00,19,16,25,0.00
2013-10-2,68,59,54,52,43,29,92,57,35,0.00,40.00,26,16,35,0.00
2013-10-3,72,57,51,35,27,12,49,34,11,0.00,40.00,11,6,24,0.00
2013-10-4,64,55,45,27,13,7,36,20,11,0.00,40.00,12,9,33,0.00
2013-10-5,68,55,44,19,14,10,33,21,12,0.00,40.00,11,8,26,0.00
2013-10-6,76,61,51,15,11,6,20,14,8,0.00,40.00,12,6,26,0.00
2013-10-7,76,66,55,28,13,8,35,14,8,0.00,40.00,18,10,29,0.00
2013-10-8,65,56,45,47,33,18,100,50,22,0.00,40.00,27,17,37,0.00
2013-10-9,44,41,36,44,41,36,100,100,100,0.00,40.00,29,21,43,0.08
2013-10-10,54,44,35,43,40,35,100,89,63,0.00,40.00,16,12,27,0.01
2013-10-11,67,55,43,44,36,31,98,53,29,0.00,40.00,14,6,22,0.00
2013-10-12,69,58,51,41,32,27,56,38,24,0.00,40.00,20,12,31,0.00
2013-10-13,62,51,44,45,36,25,72,57,38,0.00,40.00,21,12,30,0.00
2013-10-14,65,54,45,33,29,23,63,40,25,0.00,40.00,13,8,21,0.00
2013-10-15,67,57,50,26,23,17,34,27,20,0.00,40.00,14,7,22,0.00
2013-10-16,65,55,46,22,18,16,33,24,16,0.00,40.00,9,5,21,0.00
2013-10-17,74,61,54,28,23,16,32,24,15,0.00,40.00,11,4,17,0.00
2013-10-18,72,62,55,26,20,14,32,21,13,0.00,40.00,12,6,20,0.00
2013-10-19,76,64,56,26,16,10,24,16,9,0.00,40.00,9,5,13,0.00
2013-10-20,78,67,58,31,16,3,35,15,8,0.00,40.00,12,6,18,0.00
2013-10-21,76,66,60,21,16,11,21,14,11,0.00,40.00,9,5,13,0.00
2013-10-22,75,65,57,20,16,13,18,15,12,0.00,40.00,10,6,16,0.00
2013-10-23,75,64,58,31,20,17,28,19,13,0.00,40.00,8,5,14,0.00
2013-10-24,77,65,58,43,22,18,44,20,13,0.00,40.00,7,4,12,0.00
2013-10-25,78,67,60,27,21,18,21,18,12,0.00,40.00,6,3,10,0.00
2013-10-26,76,68,63,24,21,18,20,17,12,0.00,40.00,9,3,13,0.00
2013-10-27,73,63,44,45,24,15,100,29,12,0.00,40.00,27,12,34,0.00
2013-10-28,44,40,38,44,37,-100,100,96,76,0.00,40.00,34,25,46,0.11
2013-10-29,44,40,36,42,38,34,100,95,79,0.00,40.00,18,9,25,0.14
2013-10-30,55,45,38,36,31,23,88,61,35,0.00,40.00,9,5,14,0.00
2013-10-31,59,51,43,32,26,20,62,40,25,0.00,40.00,12,8,20,0.00
2013-11-1,64,55,48,26,22,20,33,28,22,0.00,40.00,13,9,24,0.00
2013-11-2,70,58,52,28,25,21,40,28,16,0.00,40.00,17,8,30,0.00
2013-11-3,62,52,42,47,35,26,100,54,35,0.00,40.00,17,9,25,0.00
2013-11-4,59,48,40,40,30,23,100,54,27,0.00,40.00,15,6,26,0.00
2013-11-5,52,44,37,23,13,2,45,30,16,0.00,40.00,14,10,26,0.00
2013-11-6,57,48,39,9,7,4,24,18,14,0.00,40.00,16,13,27,0.00
2013-11-7,65,56,49,19,13,6,21,18,13,0.00,40.00,13,7,24,0.00
2013-11-8,72,62,54,34,17,7,44,19,8,0.00,40.00,16,9,22,0.00
2013-11-9,70,60,53,25,13,4,32,17,8,0.00,40.00,18,11,24,0.00
2013-11-10,68,59,53,17,14,11,22,17,11,0.00,40.00,9,4,14,0.00
2013-11-11,66,58,51,20,17,14,25,20,16,0.00,40.00,13,8,22,0.00
2013-11-12,64,60,57,19,15,11,22,17,14,0.00,40.00,12,10,21,0.00
2013-11-13,68,61,56,23,16,11,26,18,13,0.00,40.00,11,8,16,0.00
2013-11-14,76,63,57,26,23,20,30,22,12,0.00,40.00,14,9,20,0.00
2013-11-15,57,50,42,46,36,24,100,64,32,0.00,40.00,17,12,24,0.00
2013-11-16,44,42,41,44,42,34,100,99,75,0.00,40.00,24,20,36,0.00
2013-11-17,58,46,40,49,40,33,100,81,42,0.00,40.00,16,7,21,0.01
2013-11-18,60,49,43,45,40,34,100,72,48,0.00,40.00,15,8,24,0.00
2013-11-19,53,45,41,48,43,41,100,94,74,0.00,40.00,18,12,25,0.00
2013-11-20,47,44,42,47,44,42,100,100,100,0.00,40.00,20,15,28,0.09
2013-11-21,48,43,35,48,43,34,100,100,100,0.00,40.00,16,9,25,0.68
2013-11-22,34,32,32,34,32,32,100,100,100,0.00,40.00,14,10,27,0.17
2013-11-23,36,34,32,36,34,32,100,100,100,0.00,40.00,9,6,20,0.10
2013-11-24,44,38,35,44,37,34,100,95,78,0.00,40.00,9,6,16,0.00
2013-11-25,54,44,38,35,32,27,85,64,41,0.00,40.00,11,7,14,0.00
2013-11-26,52,46,41,35,32,30,70,60,52,0.00,40.00,14,10,22,0.00
2013-11-27,51,44,40,36,33,30,72,64,51,0.00,40.00,11,8,21,0.00
2013-11-28,48,42,38,34,32,30,77,67,56,0.00,40.00,11,6,17,0.00
2013-11-29,49,43,39,40,33,31,81,68,63,0.00,40.00,12,8,19,0.01
2013-11-30,53,47,42,33,30,27,67,53,43,0.00,40.00,12,8,18,0.00
2013-12-1,55,48,44,28,27,24,51,43,32,0.00,40.00,11,8,17,0.00
2013-12-2,69,58,49,24,18,10,36,21,14,0.00,40.00,14,6,19,0.00
2013-12-3,53,46,31,43,32,21,100,63,31,0.00,40.00,23,16,31,0.02
2013-12-4,41,32,25,29,16,12,100,55,33,0.00,40.00,10,5,21,0.02
2013-12-5,40,32,26,22,10,1,70,40,27,0.00,40.00,9,4,11,0.00
2013-12-6,40,34,29,31,28,24,100,81,59,0.00,40.00,24,17,31,0.00
2013-12-7,33,28,24,33,27,12,100,95,79,0.00,40.00,31,14,39,0.04
2013-12-8,32,26,23,16,12,6,71,54,43,0.00,40.00,12,5,19,0.00
2013-12-9,32,25,18,9,0,-8,62,37,21,0.00,40.00,18,13,35,0.00
2013-12-10,35,30,22,-1,-4,-8,28,23,20,0.00,40.00,21,15,32,0.00
2013-12-11,41,36,31,7,2,-3,27,23,21,0.00,40.00,16,13,25,0.00
2013-12-12,49,43,38,11,8,3,28,23,17,0.00,40.00,12,8,23,0.00
2013-12-13,56,48,41,11,8,3,26,20,15,0.00,40.00,14,5,26,0.00
2013-12-14,48,42,36,17,14,10,41,33,27,0.00,40.00,14,11,26,0.00
2013-12-15,50,45,39,16,15,13,35,30,24,0.00,40.00,19,16,32,0.00
2013-12-16,55,51,46,17,15,12,26,24,21,0.00,40.00,16,14,26,0.00
2013-12-17,58,53,49,18,16,14,25,22,19,0.00,40.00,13,11,23,0.00
2013-12-18,63,54,40,43,25,16,100,39,19,0.00,40.00,26,11,37,0.00
2013-12-19,40,36,33,40,36,32,100,100,100,0.00,40.00,27,15,40,0.01
2013-12-20,43,37,31,33,27,18,100,70,37,0.00,40.00,9,5,14,0.01
2013-12-21,53,46,40,37,29,20,63,53,43,0.00,40.00,14,7,18,0.00
2013-12-22,56,47,42,32,28,25,57,48,37,0.00,40.00,12,4,21,0.00
2013-12-23,51,45,41,28,26,24,52,48,41,0.00,40.00,15,12,24,0.00
2013-12-24,53,47,43,29,27,26,54,47,39,0.00,40.00,15,12,26,0.00
2013-12-25,52,46,41,27,21,10,52,39,24,0.00,40.00,13,11,25,0.00
2013-12-26,51,46,42,13,10,6,29,23,18,0.00,40.00,15,13,26,0.00
2013-12-27,56,51,47,6,3,-2,17,13,10,0.00,40.00,14,10,24,0.00
2013-12-28,68,56,50,8,1,-8,16,11,5,0.00,40.00,10,5,17,0.00
2013-12-29,51,46,38,12,5,0,27,19,15,0.00,40.00,13,10,27,0.00
2013-12-30,62,52,43,6,2,-2,16,13,8,0.00,40.00,11,5,20,0.00
2013-12-31,67,53,47,7,4,-4,19,13,9,0.00,40.00,9,5,12,0.00
2014-1-1,55,48,43,15,8,3,23,19,16,0.00,40.00,14,11,22,0.00
2014-1-2,55,50,47,21,19,12,33,29,22,0.00,40.00,12,9,20,0.00